Time;durP1;ratioP1;P1;durP2;ratioP2;P2;SDS_P1;SDS_P2;PMS_P1;PMS_P2;Temp;Humidity;BMP_temperature;BMP_pressure;BME280_temperature;BME280_humidity;BME280_pressure;Samples;Min_cycle;Max_cycle;Signal;HPM_P1;HPM_P2
2022/08/28 00:01:36;;;;;;;5.72;2.15;;;13.50;99.90;;;;;;5104568;28;20455;-85
2022/08/28 00:04:02;;;;;;;8.50;2.40;;;13.50;99.90;;;;;;5113471;28;20036;-84
2022/08/28 00:06:28;;;;;;;9.07;2.05;;;13.50;99.90;;;;;;5112492;28;20038;-84
2022/08/28 00:08:54;;;;;;;5.95;1.67;;;13.40;99.90;;;;;;5113473;28;20036;-86
2022/08/28 00:11:20;;;;;;;5.50;1.67;;;13.40;99.90;;;;;;5095052;28;20059;-85
2022/08/28 00:13:46;;;;;;;7.07;2.33;;;13.40;99.90;;;;;;5096124;28;20104;-85
2022/08/28 00:16:12;;;;;;;4.72;1.95;;;13.40;99.90;;;;;;5112105;28;20133;-86
2022/08/28 00:18:38;;;;;;;6.15;1.83;;;13.40;99.90;;;;;;5095362;28;20043;-85
2022/08/28 00:21:04;;;;;;;6.97;1.50;;;13.40;99.90;;;;;;5096410;28;20027;-85
2022/08/28 00:23:32;;;;;;;8.13;2.10;;;13.30;99.90;;;;;;5113246;28;20054;-85
2022/08/28 00:25:58;;;;;;;8.70;1.80;;;13.30;99.90;;;;;;5094653;28;21077;-85
2022/08/28 00:28:24;;;;;;;6.88;1.67;;;13.30;99.90;;;;;;5090524;28;20046;-85
2022/08/28 00:30:53;;;;;;;8.48;2.25;;;13.30;99.90;;;;;;5110347;28;20032;-86
2022/08/28 00:33:26;;;;;;;8.32;2.60;;;13.30;99.90;;;;;;5108691;28;20040;-85
2022/08/28 00:35:53;;;;;;;12.07;2.42;;;13.30;99.90;;;;;;5108556;28;20092;-85
2022/08/28 00:38:20;;;;;;;5.35;1.85;;;13.40;99.90;;;;;;5113457;28;20381;-85
2022/08/28 00:40:48;;;;;;;5.50;1.92;;;13.30;99.90;;;;;;5095984;28;20115;-85
2022/08/28 00:43:33;;;;;;;8.65;2.08;;;13.40;99.90;;;;;;5078823;28;20084;-85
2022/08/28 00:46:00;;;;;;;4.50;1.27;;;13.30;99.90;;;;;;5112228;28;20051;-84
2022/08/28 00:48:26;;;;;;;7.70;2.05;;;13.30;99.90;;;;;;5111807;28;20028;-85
2022/08/28 00:53:36;;;;;;;3.78;1.30;;;13.40;99.90;;;;;;5112430;28;20044;-85
2022/08/28 00:56:07;;;;;;;6.10;2.22;;;13.30;99.90;;;;;;5111591;28;20096;-85
2022/08/28 00:58:33;;;;;;;7.60;1.48;;;13.20;99.90;;;;;;5112469;28;20035;-86
2022/08/28 01:00:59;;;;;;;5.65;1.67;;;13.20;99.90;;;;;;5095440;28;20031;-84
2022/08/28 01:03:25;;;;;;;8.07;1.92;;;13.20;99.90;;;;;;5112459;28;20035;-84
2022/08/28 01:05:51;;;;;;;7.38;2.42;;;13.20;99.90;;;;;;5110196;28;20063;-85
2022/08/28 01:08:16;;;;;;;7.05;2.20;;;13.10;99.90;;;;;;5109396;28;20127;-85
2022/08/28 01:10:47;;;;;;;8.05;2.00;;;13.10;99.90;;;;;;5111488;28;20036;-85
2022/08/28 01:13:15;;;;;;;5.30;1.48;;;13.10;99.90;;;;;;5111663;28;20379;-85
2022/08/28 01:15:41;;;;;;;5.75;2.20;;;13.00;99.90;;;;;;5110924;28;20079;-85
2022/08/28 01:18:09;;;;;;;6.32;2.17;;;13.00;99.90;;;;;;5102781;28;20042;-84
2022/08/28 01:20:41;;;;;;;4.45;2.17;;;12.90;99.90;;;;;;5111019;28;20046;-85
2022/08/28 01:23:46;;;;;;;6.18;2.42;;;12.90;99.90;;;;;;5111102;28;20046;-84
2022/08/28 01:26:12;;;;;;;6.72;1.92;;;12.90;99.90;;;;;;5104281;28;20402;-86
2022/08/28 01:28:38;;;;;;;8.73;2.28;;;12.90;99.90;;;;;;5109009;28;20122;-84
2022/08/28 01:31:04;;;;;;;9.75;2.45;;;12.90;99.90;;;;;;5110771;28;20067;-84
2022/08/28 01:33:29;;;;;;;8.38;1.98;;;12.80;99.90;;;;;;5110722;28;20128;-85
2022/08/28 01:35:55;;;;;;;10.75;3.50;;;12.80;99.90;;;;;;5110408;28;20490;-85
2022/08/28 01:38:21;;;;;;;4.43;1.55;;;12.90;99.90;;;;;;5111048;28;20454;-84
2022/08/28 01:40:51;;;;;;;6.68;2.42;;;12.80;99.90;;;;;;5109529;28;20047;-83
2022/08/28 01:43:25;;;;;;;7.65;1.77;;;12.90;99.90;;;;;;5105426;28;20036;-84
2022/08/28 01:45:54;;;;;;;8.48;1.92;;;12.80;99.90;;;;;;5091439;28;20455;-85
2022/08/28 01:48:23;;;;;;;9.10;2.10;;;12.80;99.90;;;;;;5098839;28;20035;-84
2022/08/28 01:50:49;;;;;;;3.45;1.30;;;12.70;99.90;;;;;;5108679;28;20531;-84
2022/08/28 01:53:17;;;;;;;5.43;1.50;;;12.70;99.90;;;;;;5111334;28;20107;-84
2022/08/28 01:55:43;;;;;;;7.85;1.70;;;12.70;99.90;;;;;;5110086;28;20032;-84
2022/08/28 01:58:10;;;;;;;6.03;1.27;;;12.70;99.90;;;;;;5104236;28;20081;-84
2022/08/28 02:00:36;;;;;;;4.53;2.33;;;12.70;99.90;;;;;;5110742;28;20085;-84
2022/08/28 02:03:02;;;;;;;6.00;1.70;;;12.70;99.90;;;;;;5094178;28;20035;-84
2022/08/28 02:05:31;;;;;;;5.78;1.77;;;12.60;99.90;;;;;;5111074;28;20126;-84
2022/08/28 02:07:58;;;;;;;8.18;3.25;;;12.60;99.90;;;;;;5093279;28;20058;-84
2022/08/28 02:10:26;;;;;;;7.50;2.15;;;12.60;99.90;;;;;;5094014;28;20036;-84
2022/08/28 02:12:54;;;;;;;7.35;2.42;;;12.60;99.90;;;;;;5093997;28;20039;-84
2022/08/28 02:15:21;;;;;;;6.65;2.30;;;12.60;99.90;;;;;;5110171;28;20050;-83
2022/08/28 02:17:46;;;;;;;9.40;2.42;;;12.60;99.90;;;;;;5109762;28;20173;-83
2022/08/28 02:20:12;;;;;;;7.88;3.67;;;12.50;99.90;;;;;;5110607;28;20081;-83
2022/08/28 02:22:38;;;;;;;4.80;1.65;;;12.50;99.90;;;;;;5093439;28;20035;-84
2022/08/28 02:25:05;;;;;;;5.18;1.50;;;12.50;99.90;;;;;;5110463;28;20141;-83
2022/08/28 02:27:31;;;;;;;5.18;1.77;;;12.50;99.90;;;;;;5102290;28;20032;-83
2022/08/28 02:29:57;;;;;;;13.75;1.92;;;12.40;99.90;;;;;;5109044;28;20413;-83
2022/08/28 02:32:24;;;;;;;5.93;2.08;;;12.50;99.90;;;;;;5110990;28;20036;-83
2022/08/28 02:34:53;;;;;;;5.30;1.67;;;12.50;99.90;;;;;;5111493;28;20419;-82
2022/08/28 02:37:20;;;;;;;5.20;1.75;;;12.40;99.90;;;;;;5112770;28;20035;-83
2022/08/28 02:39:46;;;;;;;9.80;2.13;;;12.40;99.90;;;;;;5114317;28;20039;-83
2022/08/28 02:42:11;;;;;;;5.18;1.75;;;12.40;99.90;;;;;;5098007;28;20038;-82
2022/08/28 02:44:37;;;;;;;5.55;2.13;;;12.40;99.90;;;;;;5123872;28;20448;-81
2022/08/28 02:47:03;;;;;;;5.90;1.70;;;12.30;99.90;;;;;;5113982;28;20072;-81
2022/08/28 02:49:30;;;;;;;7.78;2.03;;;12.40;99.90;;;;;;5124005;28;20039;-81
2022/08/28 02:51:56;;;;;;;7.55;1.42;;;12.40;99.90;;;;;;5125027;28;20040;-82
2022/08/28 02:54:22;;;;;;;7.18;1.80;;;12.30;99.90;;;;;;5126410;28;20469;-81
2022/08/28 02:56:48;;;;;;;4.80;1.55;;;12.30;99.90;;;;;;5123898;28;20039;-80
2022/08/28 02:59:14;;;;;;;3.92;1.77;;;12.30;99.90;;;;;;5118820;28;20125;-81
2022/08/28 03:01:39;;;;;;;6.95;1.73;;;12.30;99.90;;;;;;5124736;28;20051;-81
2022/08/28 03:04:05;;;;;;;4.32;1.63;;;12.30;99.90;;;;;;5123508;28;20035;-81
2022/08/28 03:06:32;;;;;;;6.72;2.05;;;12.20;99.90;;;;;;5123336;28;20035;-80
2022/08/28 03:08:58;;;;;;;7.68;1.73;;;12.20;99.90;;;;;;5120888;28;20053;-81
2022/08/28 03:11:24;;;;;;;5.20;1.40;;;12.20;99.90;;;;;;5120450;28;20059;-82
2022/08/28 03:13:51;;;;;;;8.02;1.98;;;12.20;99.90;;;;;;5118409;28;20062;-82
2022/08/28 03:16:17;;;;;;;6.53;1.55;;;12.20;99.90;;;;;;5113918;28;20490;-81
2022/08/28 03:18:43;;;;;;;4.90;2.17;;;12.20;99.90;;;;;;5109303;28;20043;-82
2022/08/28 03:21:09;;;;;;;5.45;1.85;;;12.20;99.90;;;;;;5117148;28;20058;-82
2022/08/28 03:23:36;;;;;;;4.72;1.70;;;12.20;99.90;;;;;;5117367;28;20066;-81
2022/08/28 03:26:11;;;;;;;8.75;2.05;;;12.20;99.90;;;;;;5113659;28;20048;-82
2022/08/28 03:28:57;;;;;;;5.18;1.30;;;12.20;99.90;;;;;;5115000;28;20047;-81
2022/08/28 03:31:26;;;;;;;5.07;0.80;;;12.30;99.90;;;;;;5118362;28;20047;-82
2022/08/28 03:33:53;;;;;;;6.55;2.05;;;12.30;99.90;;;;;;5117472;28;20057;-81
2022/08/28 03:36:25;;;;;;;5.93;1.92;;;12.30;99.90;;;;;;5118373;28;20377;-81
2022/08/28 03:38:52;;;;;;;9.85;1.80;;;12.30;99.90;;;;;;5118114;28;20099;-80
2022/08/28 03:41:20;;;;;;;5.95;1.50;;;12.30;99.90;;;;;;5119352;28;20043;-81
2022/08/28 03:43:46;;;;;;;5.00;1.30;;;12.30;99.90;;;;;;5117789;28;20043;-82
2022/08/28 03:46:17;;;;;;;7.72;2.88;;;12.20;99.90;;;;;;5100035;28;20099;-81
2022/08/28 03:48:43;;;;;;;7.60;1.27;;;12.20;99.90;;;;;;5109592;28;20035;-82
2022/08/28 03:51:15;;;;;;;3.03;0.95;;;12.20;99.90;;;;;;5117790;28;20118;-81
2022/08/28 03:53:41;;;;;;;5.70;1.45;;;12.20;99.90;;;;;;5117096;28;20086;-81
2022/08/28 03:56:12;;;;;;;4.30;1.42;;;12.20;99.90;;;;;;5113478;28;20047;-80
2022/08/28 03:58:39;;;;;;;5.88;1.13;;;12.20;99.90;;;;;;5113878;28;20044;-79
2022/08/28 04:01:05;;;;;;;3.88;1.42;;;12.20;99.90;;;;;;5116863;28;20051;-81
2022/08/28 04:03:31;;;;;;;7.40;1.65;;;12.20;99.90;;;;;;5116398;28;20057;-81
2022/08/28 04:05:57;;;;;;;4.80;1.45;;;12.20;99.90;;;;;;5105073;28;20035;-80
2022/08/28 04:08:23;;;;;;;4.40;1.25;;;12.10;99.90;;;;;;5118800;28;20039;-81
2022/08/28 04:10:49;;;;;;;6.65;1.80;;;12.20;99.90;;;;;;5118315;28;20031;-82
2022/08/28 04:13:17;;;;;;;3.88;1.33;;;12.20;99.90;;;;;;5118855;28;20094;-81
2022/08/28 04:15:43;;;;;;;7.65;1.42;;;12.20;99.90;;;;;;5117902;28;20119;-81
2022/08/28 04:18:09;;;;;;;8.88;1.92;;;12.20;99.90;;;;;;5110843;28;20090;-81
2022/08/28 04:20:35;;;;;;;7.15;1.33;;;12.20;99.90;;;;;;5118116;28;20047;-81
2022/08/28 04:23:02;;;;;;;6.18;1.50;;;12.20;99.90;;;;;;5119255;28;20128;-83
2022/08/28 04:25:29;;;;;;;5.53;1.42;;;12.20;99.90;;;;;;5116151;28;20047;-82
2022/08/28 04:27:54;;;;;;;6.53;1.98;;;12.20;99.90;;;;;;5094624;28;20089;-81
2022/08/28 04:30:20;;;;;;;6.68;1.20;;;12.20;99.90;;;;;;5112658;28;20071;-82
2022/08/28 04:32:46;;;;;;;5.03;1.45;;;12.20;99.90;;;;;;5113555;28;20504;-81
2022/08/28 04:35:13;;;;;;;5.97;1.42;;;12.20;99.90;;;;;;5113404;28;20048;-82
2022/08/28 04:37:39;;;;;;;4.07;0.93;;;12.20;99.90;;;;;;5105691;28;20383;-81
2022/08/28 04:40:08;;;;;;;3.90;1.55;;;12.20;99.90;;;;;;5113282;28;20043;-82
2022/08/28 04:42:34;;;;;;;6.35;1.50;;;12.20;99.90;;;;;;5110867;28;20079;-82
2022/08/28 04:45:00;;;;;;;7.28;1.73;;;12.30;99.90;;;;;;5104195;28;20067;-80
2022/08/28 04:47:27;;;;;;;7.25;1.55;;;12.30;99.90;;;;;;5103523;28;20039;-81
2022/08/28 04:49:54;;;;;;;4.75;1.50;;;12.30;99.90;;;;;;5095548;28;20541;-81
2022/08/28 04:52:21;;;;;;;3.40;1.45;;;12.40;99.90;;;;;;5112345;28;20385;-81
2022/08/28 04:54:48;;;;;;;11.05;2.00;;;12.30;99.90;;;;;;5112240;28;20566;-81
2022/08/28 04:57:14;;;;;;;3.85;1.15;;;12.30;99.90;;;;;;5103047;28;20381;-81
2022/08/28 04:59:40;;;;;;;3.83;1.98;;;12.30;99.90;;;;;;5121001;28;20050;-80
2022/08/28 05:02:06;;;;;;;6.53;1.10;;;12.30;99.90;;;;;;5120592;28;20096;-80
2022/08/28 05:04:32;;;;;;;5.45;1.60;;;12.40;99.90;;;;;;5121332;28;20115;-80
2022/08/28 05:06:57;;;;;;;5.18;1.38;;;12.40;99.90;;;;;;5121538;28;20084;-80
2022/08/28 05:09:23;;;;;;;9.98;2.10;;;12.60;99.90;;;;;;5124203;28;20397;-80
2022/08/28 05:11:49;;;;;;;4.28;1.38;;;12.70;99.90;;;;;;5105082;28;20122;-80
2022/08/28 05:14:15;;;;;;;5.68;1.55;;;12.80;99.90;;;;;;5123754;28;20134;-81
2022/08/28 05:16:47;;;;;;;5.07;1.35;;;12.90;99.90;;;;;;5121634;28;20036;-80
2022/08/28 05:19:14;;;;;;;4.30;1.05;;;13.00;99.90;;;;;;5116728;28;20440;-80
2022/08/28 05:21:41;;;;;;;6.93;0.90;;;12.90;99.90;;;;;;5121620;28;20065;-80
2022/08/28 05:24:08;;;;;;;3.72;1.10;;;12.90;99.90;;;;;;5120666;28;20082;-80
2022/08/28 05:26:34;;;;;;;5.93;1.42;;;12.90;99.90;;;;;;5112796;28;20510;-81
2022/08/28 05:29:00;;;;;;;2.70;0.73;;;12.90;99.90;;;;;;5120997;28;20039;-81
2022/08/28 05:31:28;;;;;;;4.15;1.38;;;13.00;99.90;;;;;;5122184;28;20510;-81
2022/08/28 05:33:54;;;;;;;9.40;1.40;;;13.00;99.90;;;;;;5111436;28;20036;-81
2022/08/28 05:36:22;;;;;;;5.90;1.25;;;13.10;99.90;;;;;;5109857;28;20520;-81
2022/08/28 05:38:49;;;;;;;5.38;1.23;;;13.10;99.90;;;;;;5112748;28;20494;-82
2022/08/28 05:41:25;;;;;;;5.57;1.48;;;13.20;99.90;;;;;;5109827;28;20092;-82
2022/08/28 05:43:52;;;;;;;6.85;1.55;;;13.10;99.90;;;;;;5102324;28;20045;-83
2022/08/28 05:46:19;;;;;;;6.53;1.65;;;13.20;99.90;;;;;;5106740;28;20047;-81
2022/08/28 05:48:47;;;;;;;5.20;1.38;;;13.20;99.90;;;;;;5104944;28;20065;-81
2022/08/28 05:51:17;;;;;;;4.88;1.05;;;13.30;99.90;;;;;;5100916;28;20035;-82
2022/08/28 05:53:43;;;;;;;4.75;1.90;;;13.40;99.90;;;;;;5118022;28;20044;-80
2022/08/28 05:56:11;;;;;;;7.65;1.17;;;13.40;99.90;;;;;;5117716;28;20091;-81
2022/08/28 05:58:39;;;;;;;8.40;2.22;;;13.50;99.90;;;;;;5117744;28;20035;-82
2022/08/28 06:01:15;;;;;;;4.45;1.15;;;13.60;99.90;;;;;;5114767;28;20040;-80
2022/08/28 06:03:50;;;;;;;4.45;1.00;;;13.60;99.90;;;;;;5111086;28;20078;-82
2022/08/28 06:06:16;;;;;;;7.15;1.65;;;13.70;99.90;;;;;;5091126;28;20039;-82
2022/08/28 06:08:41;;;;;;;8.65;1.80;;;13.70;99.90;;;;;;5090418;28;20494;-82
2022/08/28 06:11:07;;;;;;;6.55;1.52;;;13.80;99.90;;;;;;5128417;27;20095;-82
2022/08/28 06:13:34;;;;;;;26.08;11.70;;;13.90;99.90;;;;;;5121892;27;20111;-83
2022/08/28 06:15:59;;;;;;;6.20;2.15;;;14.00;99.90;;;;;;5112265;28;20078;-83
2022/08/28 06:18:25;;;;;;;80.93;55.42;;;14.10;99.90;;;;;;5084843;28;20058;-83
2022/08/28 06:20:52;;;;;;;20.77;13.13;;;14.10;99.90;;;;;;5105562;28;20044;-83
2022/08/28 06:23:19;;;;;;;7.68;1.75;;;14.30;99.90;;;;;;5111105;28;20042;-83
2022/08/28 06:25:48;;;;;;;3.88;1.10;;;14.40;99.90;;;;;;5114891;28;20516;-82
2022/08/28 06:28:25;;;;;;;3.22;0.52;;;14.40;99.90;;;;;;5107105;28;20032;-82
2022/08/28 06:30:52;;;;;;;9.80;1.80;;;14.50;99.90;;;;;;5114249;28;20035;-83
2022/08/28 06:33:20;;;;;;;4.68;1.20;;;14.70;99.90;;;;;;5114255;28;20043;-83
2022/08/28 06:35:53;;;;;;;6.13;1.80;;;14.70;99.90;;;;;;5114749;28;20046;-82
2022/08/28 06:38:21;;;;;;;9.93;1.10;;;14.80;99.90;;;;;;5120499;28;20055;-80
2022/08/28 06:40:50;;;;;;;7.63;0.80;;;14.90;99.90;;;;;;5117626;28;20043;-81
2022/08/28 06:43:17;;;;;;;5.45;1.00;;;15.00;99.90;;;;;;5117042;28;20092;-84
2022/08/28 06:45:45;;;;;;;5.38;0.82;;;15.10;99.90;;;;;;5115845;28;20046;-83
2022/08/28 06:48:16;;;;;;;5.30;0.90;;;15.10;99.90;;;;;;5114991;28;20133;-83
2022/08/28 06:50:48;;;;;;;5.78;1.13;;;15.30;99.90;;;;;;5114136;28;20067;-84
2022/08/28 06:53:16;;;;;;;4.43;0.43;;;15.40;99.90;;;;;;5114043;28;20035;-82
2022/08/28 06:55:42;;;;;;;4.30;0.90;;;15.50;99.90;;;;;;5114237;28;20093;-83
2022/08/28 06:58:09;;;;;;;6.25;1.27;;;15.70;99.90;;;;;;5113937;28;20035;-84
2022/08/28 07:00:36;;;;;;;5.30;1.88;;;15.80;99.90;;;;;;5111879;28;20051;-83
2022/08/28 07:03:02;;;;;;;3.05;0.55;;;15.90;99.90;;;;;;5115359;28;20067;-82
2022/08/28 07:05:28;;;;;;;3.55;0.82;;;16.10;99.90;;;;;;5123373;28;20050;-82
2022/08/28 07:07:54;;;;;;;2.05;0.52;;;16.20;99.90;;;;;;5124440;28;20044;-83
2022/08/28 07:10:20;;;;;;;5.55;0.60;;;16.30;99.90;;;;;;5124225;28;20072;-81
2022/08/28 07:12:48;;;;;;;4.25;0.68;;;16.40;99.90;;;;;;5123725;28;20036;-83
2022/08/28 07:15:14;;;;;;;2.63;0.73;;;16.50;99.90;;;;;;5105987;28;20043;-83
2022/08/28 07:17:39;;;;;;;3.05;0.60;;;16.70;99.90;;;;;;5123090;28;20069;-82
2022/08/28 07:20:06;;;;;;;4.97;0.47;;;16.90;99.90;;;;;;5107722;28;20043;-81
2022/08/28 07:22:32;;;;;;;4.00;0.80;;;17.10;99.90;;;;;;5125970;28;20460;-81
2022/08/28 07:24:58;;;;;;;5.88;0.47;;;17.30;99.90;;;;;;5124360;28;20032;-81
2022/08/28 07:27:24;;;;;;;5.72;0.75;;;17.60;99.90;;;;;;5123419;28;20350;-81
2022/08/28 07:29:52;;;;;;;4.82;0.63;;;17.80;99.90;;;;;;5124169;28;20039;-81
2022/08/28 07:32:21;;;;;;;2.67;0.30;;;17.90;99.90;;;;;;5123620;28;20398;-81
2022/08/28 07:34:47;;;;;;;5.38;0.60;;;18.20;99.90;;;;;;5121919;28;20094;-82
2022/08/28 07:37:13;;;;;;;1.75;0.45;;;18.30;99.90;;;;;;5121970;28;20063;-81
2022/08/28 07:39:39;;;;;;;4.82;0.50;;;18.40;99.90;;;;;;5121684;28;20051;-82
2022/08/28 07:42:04;;;;;;;5.13;1.00;;;18.60;99.90;;;;;;5121445;28;20120;-81
2022/08/28 07:44:48;;;;;;;2.83;0.40;;;18.70;99.90;;;;;;5122037;28;20091;-80
2022/08/28 07:47:16;;;;;;;2.97;0.77;;;18.70;99.90;;;;;;5121437;28;20040;-80
2022/08/28 07:49:41;;;;;;;4.53;0.90;;;18.80;99.90;;;;;;5119722;28;20088;-81
2022/08/28 07:52:08;;;;;;;1.27;0.40;;;19.00;99.90;;;;;;5114731;28;20122;-79
2022/08/28 07:54:35;;;;;;;2.13;0.30;;;19.30;99.90;;;;;;5097630;28;20043;-81
2022/08/28 07:57:02;;;;;;;5.03;0.75;;;19.50;99.90;;;;;;5096876;28;20043;-82
2022/08/28 07:59:28;;;;;;;4.72;0.80;;;19.70;99.90;;;;;;5098098;28;20161;-81
2022/08/28 08:01:54;;;;;;;2.05;0.40;;;20.10;99.90;;;;;;5097084;28;20525;-81
2022/08/28 08:04:22;;;;;;;2.67;0.40;;;20.40;99.90;;;;;;5097900;28;20036;-80
2022/08/28 08:06:48;;;;;;;1.30;0.45;;;20.20;99.90;;;;;;5096879;28;20044;-80
2022/08/28 08:09:16;;;;;;;3.65;0.65;;;19.90;99.90;;;;;;5096503;28;20090;-80
2022/08/28 08:11:43;;;;;;;5.70;0.80;;;19.60;99.90;;;;;;5096897;28;20047;-80
2022/08/28 08:14:09;;;;;;;3.92;0.40;;;19.40;99.90;;;;;;5097909;28;20055;-80
2022/08/28 08:16:38;;;;;;;5.88;0.85;;;19.30;99.90;;;;;;5096959;28;20119;-80
2022/08/28 08:19:04;;;;;;;4.13;0.50;;;19.20;99.90;;;;;;5095368;28;20054;-79
2022/08/28 08:21:30;;;;;;;4.53;0.52;;;19.40;99.90;;;;;;5097825;28;20119;-79
2022/08/28 08:23:56;;;;;;;3.78;0.35;;;19.30;99.90;;;;;;5096135;28;20121;-79
2022/08/28 08:26:24;;;;;;;4.13;0.70;;;19.30;99.90;;;;;;5097042;28;20040;-79
2022/08/28 08:28:50;;;;;;;3.30;0.63;;;19.60;99.90;;;;;;5096425;28;20044;-79
2022/08/28 08:31:25;;;;;;;3.88;0.52;;;19.80;99.90;;;;;;5097054;28;20082;-80
2022/08/28 08:33:54;;;;;;;2.92;0.30;;;20.00;99.90;;;;;;5107963;28;20311;-80
2022/08/28 08:36:21;;;;;;;5.35;1.17;;;20.10;99.90;;;;;;5115726;28;20035;-79
2022/08/28 08:38:48;;;;;;;4.55;0.70;;;20.10;99.90;;;;;;5114447;28;20425;-79
2022/08/28 08:41:22;;;;;;;4.35;0.50;;;20.30;99.90;;;;;;5114100;28;20067;-79
2022/08/28 08:44:06;;;;;;;3.00;0.30;;;20.40;99.90;;;;;;5114852;28;20490;-79
2022/08/28 08:46:45;;;;;;;3.15;0.50;;;20.50;99.90;;;;;;5114030;28;20055;-79
2022/08/28 08:49:19;;;;;;;2.63;1.23;;;20.40;99.90;;;;;;5114536;28;20452;-79
2022/08/28 08:52:07;;;;;;;3.90;0.70;;;20.10;99.90;;;;;;5114052;28;20036;-79
2022/08/28 08:54:32;;;;;;;4.53;0.50;;;20.20;99.90;;;;;;5112383;28;20042;-79
2022/08/28 08:57:01;;;;;;;4.18;0.60;;;20.70;99.90;;;;;;5114844;28;20035;-79
2022/08/28 08:59:32;;;;;;;3.45;0.45;;;21.10;98.50;;;;;;5113922;28;20498;-79
2022/08/28 09:02:09;;;;;;;7.78;0.80;;;21.50;97.50;;;;;;5109526;28;20513;-80
2022/08/28 09:04:52;;;;;;;3.85;1.20;;;21.90;96.50;;;;;;5093740;28;20158;-79
2022/08/28 09:07:28;;;;;;;4.05;0.57;;;22.00;94.20;;;;;;5093570;28;20061;-79
2022/08/28 09:09:56;;;;;;;2.85;0.60;;;21.80;94.60;;;;;;5095104;28;20044;-79
2022/08/28 09:12:28;;;;;;;3.10;0.60;;;21.80;94.70;;;;;;5094012;28;20043;-79
2022/08/28 09:15:16;;;;;;;6.15;0.40;;;21.90;95.10;;;;;;5097420;28;20044;-80
2022/08/28 09:17:47;;;;;;;4.15;0.20;;;21.70;94.30;;;;;;5086388;28;20074;-81
2022/08/28 09:20:20;;;;;;;2.88;0.52;;;21.80;94.70;;;;;;5096126;28;20052;-80
2022/08/28 09:22:47;;;;;;;4.80;0.50;;;21.90;93.00;;;;;;5096994;28;20050;-81
2022/08/28 09:25:54;;;;;;;2.53;0.73;;;22.20;94.00;;;;;;5096868;28;20032;-81
2022/08/28 09:28:36;;;;;;;4.78;0.90;;;22.30;92.00;;;;;;5096998;28;20075;-81
2022/08/28 09:31:32;;;;;;;5.63;0.40;;;21.90;92.50;;;;;;5117235;28;20085;-81
2022/08/28 09:34:24;;;;;;;5.93;0.60;;;21.50;92.40;;;;;;5116534;28;20047;-80
2022/08/28 09:36:51;;;;;;;8.63;0.75;;;21.30;93.70;;;;;;5115496;28;20043;-81
2022/08/28 09:39:20;;;;;;;3.78;0.40;;;21.00;94.40;;;;;;5115050;28;20078;-81
2022/08/28 09:44:53;;;;;;;3.97;0.60;;;20.70;96.10;;;;;;5115322;28;20071;-82
2022/08/28 09:47:40;;;;;;;2.90;0.88;;;21.00;96.60;;;;;;5116177;28;20124;-81
2022/08/28 09:50:19;;;;;;;4.03;0.70;;;21.30;95.80;;;;;;5113571;28;20040;-80
2022/08/28 09:52:45;;;;;;;5.30;0.95;;;21.10;94.90;;;;;;5116033;28;20036;-80
2022/08/28 09:55:20;;;;;;;5.47;0.52;;;20.80;95.30;;;;;;5115645;28;20043;-80
2022/08/28 09:57:46;;;;;;;1.92;0.30;;;20.90;95.10;;;;;;5116209;28;20054;-80
2022/08/28 10:00:13;;;;;;;4.70;0.98;;;21.40;94.20;;;;;;5115514;28;20043;-80
2022/08/28 10:02:49;;;;;;;3.75;0.43;;;21.90;93.20;;;;;;5116661;28;20432;-81
2022/08/28 10:05:24;;;;;;;2.67;0.47;;;22.10;91.00;;;;;;5116103;28;20095;-81
2022/08/28 10:07:56;;;;;;;2.25;0.95;;;22.00;91.50;;;;;;5114970;28;20558;-80
2022/08/28 10:10:46;;;;;;;2.97;0.65;;;21.40;90.70;;;;;;5111299;28;20363;-80
2022/08/28 10:13:25;;;;;;;4.40;1.55;;;20.90;89.80;;;;;;5115610;28;20044;-80
2022/08/28 10:16:31;;;;;;;3.28;0.63;;;20.60;92.30;;;;;;5115972;28;20075;-80
2022/08/28 10:19:19;;;;;;;2.92;0.60;;;20.40;93.60;;;;;;5115237;28;20047;-80
2022/08/28 10:21:53;;;;;;;4.28;0.82;;;20.30;94.60;;;;;;5114843;28;20055;-79
2022/08/28 10:24:30;;;;;;;5.70;0.77;;;20.30;95.00;;;;;;5115577;28;20072;-80
2022/08/28 10:27:10;;;;;;;3.70;0.30;;;20.60;95.10;;;;;;5116158;28;20044;-80
2022/08/28 10:30:00;;;;;;;3.17;0.47;;;21.20;94.70;;;;;;5114824;28;20060;-81
2022/08/28 10:32:50;;;;;;;3.03;0.60;;;21.70;92.40;;;;;;5113928;28;20130;-81
2022/08/28 10:35:26;;;;;;;4.30;0.82;;;21.40;91.50;;;;;;5115280;28;20123;-80
2022/08/28 10:38:10;;;;;;;3.67;0.95;;;21.40;91.60;;;;;;5116590;28;20280;-81
2022/08/28 10:40:39;;;;;;;1.88;0.40;;;21.80;90.90;;;;;;5114070;28;20036;-81
2022/08/28 10:43:13;;;;;;;6.43;0.55;;;22.40;90.20;;;;;;5114864;28;20550;-80
2022/08/28 10:45:40;;;;;;;2.28;0.47;;;22.90;87.10;;;;;;5114501;28;20047;-81
2022/08/28 10:48:26;;;;;;;2.22;0.68;;;22.90;86.00;;;;;;5113835;28;20071;-81
2022/08/28 10:51:05;;;;;;;2.72;0.30;;;22.40;84.00;;;;;;5114694;28;20218;-81
2022/08/28 10:53:39;;;;;;;5.40;0.50;;;21.90;84.60;;;;;;5117472;28;20454;-79
2022/08/28 10:56:14;;;;;;;1.63;0.30;;;21.50;86.10;;;;;;5118868;28;20051;-80
2022/08/28 10:58:40;;;;;;;5.90;0.45;;;21.70;87.50;;;;;;5124478;28;20273;-80
2022/08/28 11:01:11;;;;;;;2.20;0.30;;;22.10;88.70;;;;;;5123390;28;20047;-80
2022/08/28 11:03:48;;;;;;;4.80;0.60;;;22.80;88.80;;;;;;5123225;28;20031;-80
2022/08/28 11:06:34;;;;;;;7.25;0.50;;;23.60;84.90;;;;;;5123144;28;20092;-80
2022/08/28 11:09:23;;;;;;;2.38;0.40;;;23.60;79.60;;;;;;5125106;28;20086;-80
2022/08/28 11:11:55;;;;;;;2.10;0.60;;;23.00;81.10;;;;;;5106939;28;20039;-80
2022/08/28 11:14:35;;;;;;;4.63;0.77;;;22.80;83.10;;;;;;5124761;28;20058;-81
2022/08/28 11:17:26;;;;;;;2.10;0.38;;;23.10;83.90;;;;;;5106477;28;20496;-81
2022/08/28 11:20:08;;;;;;;2.53;0.50;;;23.10;80.60;;;;;;5124545;28;20140;-81
2022/08/28 11:23:00;;;;;;;3.17;0.70;;;22.80;79.80;;;;;;5124413;28;20039;-81
2022/08/28 11:25:40;;;;;;;4.40;0.52;;;22.70;79.20;;;;;;5115654;28;20050;-80
2022/08/28 11:28:22;;;;;;;3.15;0.28;;;23.10;77.90;;;;;;5124952;28;20478;-80
2022/08/28 11:31:08;;;;;;;2.83;0.38;;;23.70;74.10;;;;;;5123501;28;20120;-81
2022/08/28 11:33:54;;;;;;;3.92;0.77;;;24.00;73.60;;;;;;5124107;28;20435;-81
2022/08/28 11:36:22;;;;;;;2.75;0.40;;;23.80;72.70;;;;;;5122610;28;20062;-81
2022/08/28 11:38:51;;;;;;;1.77;0.65;;;23.50;73.30;;;;;;5123977;28;20122;-80
2022/08/28 11:41:25;;;;;;;1.77;0.35;;;23.00;74.00;;;;;;5123555;28;20136;-81
2022/08/28 11:44:03;;;;;;;1.27;0.52;;;22.80;74.30;;;;;;5124007;28;20058;-80
2022/08/28 11:46:33;;;;;;;3.60;0.30;;;23.30;72.80;;;;;;5122992;28;20486;-80
2022/08/28 11:49:18;;;;;;;3.17;0.38;;;23.70;70.30;;;;;;5122814;28;20058;-80
2022/08/28 11:52:06;;;;;;;2.25;0.45;;;23.50;71.00;;;;;;5121841;28;20118;-80
2022/08/28 11:55:00;;;;;;;3.85;0.50;;;22.80;70.80;;;;;;5122776;28;20063;-81
2022/08/28 11:57:50;;;;;;;2.70;0.30;;;22.70;71.40;;;;;;5124167;28;20040;-81
2022/08/28 12:00:21;;;;;;;1.27;0.30;;;23.50;70.60;;;;;;5106050;28;20089;-80
2022/08/28 12:03:01;;;;;;;3.53;0.60;;;24.10;68.60;;;;;;5095540;28;20075;-82
2022/08/28 12:05:30;;;;;;;3.50;1.00;;;23.90;68.80;;;;;;5094650;28;20036;-80
2022/08/28 12:07:57;;;;;;;3.05;0.63;;;23.50;69.70;;;;;;5096955;28;20139;-81
2022/08/28 12:10:23;;;;;;;3.90;0.65;;;23.60;72.10;;;;;;5100685;28;20048;-81
2022/08/28 12:12:48;;;;;;;3.00;0.65;;;24.00;71.10;;;;;;5101886;28;20048;-80
2022/08/28 12:15:26;;;;;;;2.47;0.35;;;24.20;70.70;;;;;;5101847;28;20066;-81
2022/08/28 12:18:00;;;;;;;2.22;0.95;;;24.40;68.80;;;;;;5103091;28;20050;-81
2022/08/28 12:20:47;;;;;;;2.38;0.82;;;24.50;68.20;;;;;;5116705;28;20039;-81
2022/08/28 12:23:31;;;;;;;2.25;0.32;;;23.90;68.20;;;;;;5122984;28;20043;-80
2022/08/28 12:26:08;;;;;;;2.70;0.68;;;23.30;67.70;;;;;;5123185;28;20047;-81
2022/08/28 12:28:43;;;;;;;3.88;0.95;;;23.50;68.20;;;;;;5122440;28;20039;-80
2022/08/28 12:34:32;;;;;;;2.75;0.50;;;24.80;65.60;;;;;;5119095;28;20052;-81
2022/08/28 12:37:00;;;;;;;1.67;0.50;;;25.30;65.00;;;;;;5116756;28;20046;-83
2022/08/28 12:39:29;;;;;;;3.17;0.60;;;24.40;64.20;;;;;;5109777;28;20598;-82
2022/08/28 12:41:54;;;;;;;4.85;0.35;;;23.40;65.80;;;;;;5095216;28;20066;-81
2022/08/28 12:44:29;;;;;;;3.15;0.50;;;23.00;68.00;;;;;;5095603;28;20101;-82
2022/08/28 12:46:56;;;;;;;4.47;0.70;;;23.30;68.00;;;;;;5097010;28;20036;-82
2022/08/28 12:49:28;;;;;;;3.38;0.70;;;24.00;66.40;;;;;;5094472;28;20775;-81
2022/08/28 12:52:16;;;;;;;3.72;0.70;;;23.90;64.70;;;;;;5093534;28;20144;-81
2022/08/28 12:54:43;;;;;;;1.85;0.43;;;23.60;63.60;;;;;;5094230;28;20040;-81
2022/08/28 12:57:12;;;;;;;1.73;1.02;;;23.60;65.30;;;;;;5094947;28;20451;-81
2022/08/28 12:59:41;;;;;;;3.70;0.98;;;24.10;65.70;;;;;;5098812;28;20043;-81
2022/08/28 13:02:23;;;;;;;2.60;0.68;;;24.60;64.40;;;;;;5114150;28;20087;-82
2022/08/28 13:04:57;;;;;;;3.78;0.60;;;24.60;63.20;;;;;;5116044;28;20123;-81
2022/08/28 13:07:28;;;;;;;2.00;0.40;;;24.50;62.20;;;;;;5112968;28;20080;-81
2022/08/28 13:09:57;;;;;;;3.95;0.50;;;24.40;63.00;;;;;;5112973;28;20051;-81
2022/08/28 13:12:36;;;;;;;4.13;0.60;;;24.70;63.50;;;;;;5115472;28;20046;-82